Time;durP1;ratioP1;P1;durP2;ratioP2;P2;SDS_P1;SDS_P2;PMS_P1;PMS_P2;Temp;Humidity;BMP_temperature;BMP_pressure;BME280_temperature;BME280_humidity;BME280_pressure;Samples;Min_cycle;Max_cycle;Signal;HPM_P1;HPM_P2
2021/01/17 00:01:43;;;;;;;0.30;0.30;;;7.40;99.90;;;;;;20591263;28;20230;-80
2021/01/17 00:11:50;;;;;;;0.30;0.30;;;7.40;99.90;;;;;;20595065;28;20195;-74
2021/01/17 00:21:53;;;;;;;0.37;0.37;;;7.80;99.90;;;;;;20626464;28;20247;-78
2021/01/17 00:31:56;;;;;;;3.13;1.10;;;7.40;99.90;;;;;;20623498;28;20188;-77
2021/01/17 00:42:01;;;;;;;1.17;0.77;;;7.80;99.90;;;;;;20623625;28;20254;-77
2021/01/17 00:52:04;;;;;;;0.73;0.70;;;7.50;99.90;;;;;;20622398;28;20326;-75
2021/01/17 01:02:08;;;;;;;0.87;0.57;;;7.10;99.90;;;;;;20619342;28;20230;-78
2021/01/17 01:12:13;;;;;;;0.33;0.33;;;6.80;99.90;;;;;;20620637;28;20278;-79
2021/01/17 01:22:16;;;;;;;1.33;1.23;;;7.10;99.90;;;;;;20603803;28;20447;-78
2021/01/17 01:32:20;;;;;;;0.20;0.10;;;6.10;99.90;;;;;;20620476;28;20195;-79
2021/01/17 01:42:24;;;;;;;0.60;0.30;;;6.10;99.90;;;;;;20621446;28;20622;-77
2021/01/17 01:52:27;;;;;;;0.40;0.40;;;7.50;99.90;;;;;;20624058;28;20207;-78
2021/01/17 02:02:41;;;;;;;0.20;0.20;;;7.70;99.90;;;;;;20632419;23;21032;-67
2021/01/17 02:12:50;;;;;;;0.80;0.67;;;7.60;99.90;;;;;;20620924;28;20987;-67
2021/01/17 02:23:06;;;;;;;1.43;0.70;;;7.60;99.90;;;;;;20599764;28;20247;-67
2021/01/17 02:33:12;;;;;;;1.20;0.77;;;7.40;99.90;;;;;;20616131;28;20291;-66
2021/01/17 02:43:15;;;;;;;1.50;0.83;;;7.30;99.90;;;;;;20617649;28;20385;-67
2021/01/17 02:53:26;;;;;;;3.20;0.50;;;7.10;99.90;;;;;;20614717;28;20211;-66
2021/01/17 03:03:35;;;;;;;0.50;0.50;;;7.00;99.90;;;;;;20597550;28;20257;-66
2021/01/17 03:13:40;;;;;;;1.80;1.10;;;6.30;99.90;;;;;;20616262;28;20829;-66
2021/01/17 03:23:43;;;;;;;0.83;0.73;;;5.90;99.90;;;;;;20594067;28;20206;-66
2021/01/17 03:33:47;;;;;;;0.50;0.40;;;6.00;99.90;;;;;;20615296;28;20223;-66
2021/01/17 03:43:49;;;;;;;1.30;0.40;;;5.00;99.90;;;;;;20612295;28;20215;-68
2021/01/17 03:53:53;;;;;;;0.20;0.20;;;4.90;99.90;;;;;;20571921;28;20565;-67
2021/01/17 04:03:57;;;;;;;0.47;0.47;;;4.80;99.90;;;;;;20597587;23;20309;-76
2021/01/17 04:14:01;;;;;;;0.80;0.80;;;4.80;99.90;;;;;;20630115;28;20508;-78
2021/01/17 04:24:04;;;;;;;0.43;0.43;;;4.60;99.90;;;;;;20624966;28;20204;-75
2021/01/17 04:34:08;;;;;;;0.20;0.10;;;4.70;99.90;;;;;;20627751;28;21003;-75
2021/01/17 04:44:12;;;;;;;0.50;0.50;;;4.90;99.90;;;;;;20608644;28;20204;-76
2021/01/17 04:54:16;;;;;;;0.50;0.50;;;4.60;99.90;;;;;;20686119;28;20460;-77
2021/01/17 05:04:48;;;;;;;0.20;0.20;;;4.50;99.90;;;;;;20705588;28;20223;-76
2021/01/17 05:14:56;;;;;;;0.40;0.40;;;4.70;99.90;;;;;;20702032;28;20341;-77
2021/01/17 05:24:58;;;;;;;0.20;0.10;;;5.20;99.90;;;;;;20707104;28;20288;-83
2021/01/17 05:35:04;;;;;;;3.03;0.53;;;5.20;99.90;;;;;;20697807;28;20219;-81
2021/01/17 05:45:13;;;;;;;0.20;0.10;;;5.10;99.90;;;;;;20607384;28;20210;-78
2021/01/17 05:55:17;;;;;;;0.53;0.53;;;5.00;99.90;;;;;;20639600;28;20374;-78
2021/01/17 06:05:23;;;;;;;0.20;0.20;;;5.40;99.90;;;;;;20604271;28;20230;-76
2021/01/17 06:15:32;;;;;;;0.20;0.20;;;6.70;99.90;;;;;;20604091;28;20273;-75
2021/01/17 06:25:35;;;;;;;0.20;0.20;;;6.80;99.90;;;;;;20601046;28;20204;-75
2021/01/17 06:35:39;;;;;;;0.33;0.33;;;6.90;99.90;;;;;;20617077;28;20818;-75
2021/01/17 06:45:43;;;;;;;0.27;0.23;;;6.80;99.90;;;;;;20619461;28;20362;-74
2021/01/17 06:55:47;;;;;;;0.40;0.27;;;7.40;99.90;;;;;;20689423;28;20230;-75
2021/01/17 07:06:06;;;;;;;7.33;0.60;;;7.50;99.90;;;;;;20680735;28;21092;-76
2021/01/17 07:16:18;;;;;;;0.30;0.30;;;7.40;99.90;;;;;;20700066;28;20313;-75
2021/01/17 07:26:27;;;;;;;1.23;0.87;;;6.90;99.90;;;;;;20673205;28;20467;-79
2021/01/17 07:36:33;;;;;;;0.30;0.30;;;6.70;99.90;;;;;;20613945;28;20235;-77
2021/01/17 07:46:39;;;;;;;1.70;1.03;;;6.50;99.90;;;;;;20598963;28;20211;-80
2021/01/17 07:56:44;;;;;;;0.57;0.50;;;6.40;99.90;;;;;;20695354;28;20707;-80
2021/01/17 08:06:50;;;;;;;0.70;0.70;;;6.30;99.90;;;;;;20694748;28;20226;-73
2021/01/17 08:17:09;;;;;;;1.13;0.40;;;6.90;99.90;;;;;;20693942;28;20304;-75
2021/01/17 08:27:30;;;;;;;1.43;1.33;;;8.40;99.90;;;;;;20692203;28;20202;-74
2021/01/17 08:37:35;;;;;;;0.63;0.60;;;8.70;99.90;;;;;;20618404;28;20691;-74
2021/01/17 08:47:39;;;;;;;1.33;1.23;;;9.00;99.90;;;;;;20632117;28;20262;-75
2021/01/17 08:57:44;;;;;;;2.57;0.83;;;9.00;99.90;;;;;;20689233;28;20232;-73
2021/01/17 09:07:47;;;;;;;0.77;0.77;;;9.90;99.90;;;;;;20703138;28;20603;-71
2021/01/17 09:18:01;;;;;;;1.03;0.97;;;10.10;99.90;;;;;;20704469;28;20222;-73
2021/01/17 09:28:04;;;;;;;0.23;0.23;;;9.90;99.90;;;;;;20704372;28;20278;-73
2021/01/17 09:38:13;;;;;;;0.33;0.33;;;10.60;99.90;;;;;;20703068;28;20327;-72
2021/01/17 09:48:18;;;;;;;0.87;0.87;;;11.40;99.90;;;;;;20691558;28;21221;-74
2021/01/17 09:58:24;;;;;;;0.20;0.10;;;11.60;99.90;;;;;;20618209;28;21255;-74
2021/01/17 10:08:28;;;;;;;6.10;0.90;;;11.70;99.90;;;;;;20623628;28;20343;-84
2021/01/17 10:18:32;;;;;;;1.07;0.93;;;12.00;99.90;;;;;;20586248;28;20219;-74
2021/01/17 10:28:36;;;;;;;2.13;1.10;;;12.10;99.90;;;;;;20601706;28;20207;-75
2021/01/17 10:38:50;;;;;;;2.30;1.23;;;12.60;99.90;;;;;;20607900;28;20338;-74
2021/01/17 10:49:01;;;;;;;1.90;1.27;;;13.30;99.90;;;;;;20597151;28;20206;-73
2021/01/17 10:59:10;;;;;;;1.60;0.70;;;13.80;99.90;;;;;;20616892;28;20298;-74
2021/01/17 11:09:14;;;;;;;0.77;0.77;;;14.40;99.90;;;;;;20615613;28;20624;-73
2021/01/17 11:19:19;;;;;;;2.23;1.67;;;14.70;99.90;;;;;;20577289;28;20255;-75
2021/01/17 11:29:22;;;;;;;1.37;1.27;;;15.80;99.90;;;;;;20612544;28;20211;-77
2021/01/17 11:39:26;;;;;;;1.83;1.10;;;16.60;99.90;;;;;;20611916;28;20742;-78
2021/01/17 11:49:30;;;;;;;3.70;0.87;;;17.30;99.90;;;;;;20634379;28;20614;-80
2021/01/17 11:59:35;;;;;;;0.20;0.20;;;17.70;99.90;;;;;;20636009;28;20230;-79
2021/01/17 12:09:42;;;;;;;0.30;0.30;;;17.50;99.90;;;;;;20618944;28;20664;-80
2021/01/17 12:19:46;;;;;;;0.80;0.60;;;18.70;99.90;;;;;;20596021;28;20223;-78
2021/01/17 12:29:49;;;;;;;1.40;0.53;;;19.90;99.90;;;;;;20628798;28;20503;-79
2021/01/17 12:39:53;;;;;;;0.80;0.67;;;19.60;99.90;;;;;;20633549;28;20592;-80
2021/01/17 12:50:02;;;;;;;0.90;0.70;;;20.30;99.90;;;;;;20645118;28;20298;-80
2021/01/17 13:00:07;;;;;;;0.50;0.40;;;20.70;99.90;;;;;;20633725;28;20235;-81
2021/01/17 13:10:11;;;;;;;1.23;1.10;;;21.10;99.90;;;;;;20640296;28;20214;-81
2021/01/17 13:20:14;;;;;;;2.53;1.63;;;21.20;99.90;;;;;;20639101;28;20407;-81
2021/01/17 13:30:21;;;;;;;1.87;0.60;;;21.10;99.90;;;;;;20638759;28;20199;-83
2021/01/17 13:40:27;;;;;;;5.70;3.10;;;21.60;99.90;;;;;;20630608;28;20699;-82
2021/01/17 13:50:30;;;;;;;1.40;0.83;;;21.70;99.90;;;;;;20613714;28;20196;-82
2021/01/17 14:00:34;;;;;;;2.33;1.27;;;20.70;99.90;;;;;;20633227;28;20816;-82
2021/01/17 14:10:37;;;;;;;1.90;1.43;;;21.60;99.90;;;;;;20624497;28;20585;-83
2021/01/17 14:20:41;;;;;;;2.90;1.23;;;20.80;99.90;;;;;;20618423;28;20659;-80
2021/01/17 14:30:43;;;;;;;0.93;0.30;;;20.50;99.90;;;;;;20599855;28;20629;-79
2021/01/17 14:40:47;;;;;;;1.10;0.47;;;20.00;99.90;;;;;;20599901;28;20406;-79
2021/01/17 14:50:51;;;;;;;2.73;0.97;;;20.20;99.90;;;;;;20654371;28;20209;-78
2021/01/17 15:00:55;;;;;;;0.67;0.40;;;20.90;99.90;;;;;;20686032;28;20231;-80
2021/01/17 15:10:59;;;;;;;6.27;1.37;;;19.70;99.90;;;;;;20635511;28;20184;-78
2021/01/17 15:21:03;;;;;;;1.00;0.87;;;19.20;99.90;;;;;;20623337;28;20227;-85
2021/01/17 15:31:06;;;;;;;0.57;0.57;;;19.50;99.90;;;;;;20612767;28;20294;-84
2021/01/17 15:41:12;;;;;;;2.90;1.00;;;19.90;99.90;;;;;;20578659;28;20227;-82
2021/01/17 15:51:16;;;;;;;10.37;5.87;;;19.10;99.90;;;;;;20611023;28;20199;-82
2021/01/17 16:01:21;;;;;;;4.27;3.37;;;19.20;99.90;;;;;;20595636;28;20285;-81
2021/01/17 16:11:29;;;;;;;3.37;3.03;;;18.00;99.90;;;;;;20605176;28;20195;-78
2021/01/17 16:21:33;;;;;;;1.13;0.83;;;16.10;99.90;;;;;;20610287;28;20223;-81
2021/01/17 16:31:41;;;;;;;0.40;0.40;;;14.90;99.90;;;;;;20610835;28;20195;-78
2021/01/17 16:41:45;;;;;;;2.77;1.03;;;13.70;99.90;;;;;;20610608;28;20310;-80
2021/01/17 16:51:48;;;;;;;2.57;2.13;;;12.60;99.90;;;;;;20632541;28;20195;-81
2021/01/17 17:01:57;;;;;;;10.20;3.97;;;12.60;99.90;;;;;;20618575;28;20235;-79
2021/01/17 17:12:04;;;;;;;30.03;4.73;;;12.20;99.90;;;;;;20592283;28;20184;-80
2021/01/17 17:22:07;;;;;;;2.10;1.83;;;11.50;99.90;;;;;;20618455;28;20731;-81
2021/01/17 17:32:12;;;;;;;3.83;3.47;;;11.20;99.90;;;;;;20619844;28;20196;-79
2021/01/17 17:42:16;;;;;;;4.10;2.43;;;10.60;99.90;;;;;;20603307;28;20613;-78
2021/01/17 17:52:19;;;;;;;5.70;4.37;;;10.40;99.90;;;;;;20665191;28;20203;-78
2021/01/17 18:02:24;;;;;;;6.43;2.00;;;10.10;99.90;;;;;;20698538;28;20231;-78
2021/01/17 18:12:27;;;;;;;6.57;2.73;;;9.90;99.90;;;;;;20648798;28;20195;-79
2021/01/17 18:22:31;;;;;;;3.20;2.10;;;9.60;99.90;;;;;;20598325;28;20706;-84
2021/01/17 18:32:35;;;;;;;2.57;2.20;;;9.50;99.90;;;;;;20618667;28;20202;-83
2021/01/17 18:42:39;;;;;;;4.07;3.60;;;9.30;99.90;;;;;;20597583;28;20257;-84
2021/01/17 18:52:56;;;;;;;3.77;2.37;;;9.20;99.90;;;;;;20663124;28;20194;-82
2021/01/17 19:03:00;;;;;;;3.97;2.47;;;9.10;99.90;;;;;;20704984;28;20247;-81
2021/01/17 19:13:04;;;;;;;2.43;2.23;;;9.10;99.90;;;;;;20612544;28;20199;-80
2021/01/17 19:23:10;;;;;;;3.13;1.83;;;8.80;99.90;;;;;;20593577;28;20219;-79
2021/01/17 19:33:13;;;;;;;4.67;2.77;;;8.50;99.90;;;;;;20584179;28;20302;-80
2021/01/17 19:43:17;;;;;;;2.33;2.13;;;8.40;99.90;;;;;;20529187;28;20223;-80
2021/01/17 19:53:20;;;;;;;6.00;2.77;;;9.10;99.90;;;;;;20601404;28;20398;-81
2021/01/17 20:03:24;;;;;;;22.73;3.17;;;9.20;99.90;;;;;;20613253;28;20562;-79
2021/01/17 20:13:27;;;;;;;2.63;2.10;;;9.00;99.90;;;;;;20612476;28;20192;-77
2021/01/17 20:23:35;;;;;;;0.90;0.90;;;8.60;99.90;;;;;;20592557;28;20235;-78
2021/01/17 20:33:38;;;;;;;7.07;2.07;;;8.20;99.90;;;;;;20621441;28;20265;-80
2021/01/17 20:43:49;;;;;;;3.60;2.47;;;8.30;99.90;;;;;;20626132;28;20231;-82
2021/01/17 20:53:59;;;;;;;1.77;1.17;;;8.70;99.90;;;;;;20683847;28;20628;-77
2021/01/17 21:04:06;;;;;;;4.23;2.03;;;8.40;99.90;;;;;;20706109;28;20316;-80
2021/01/17 21:14:09;;;;;;;4.53;1.90;;;8.50;99.90;;;;;;20704259;28;20206;-76
2021/01/17 21:24:14;;;;;;;1.13;1.03;;;8.50;99.90;;;;;;20705922;28;20785;-79
2021/01/17 21:34:20;;;;;;;3.10;1.10;;;8.00;99.90;;;;;;20702380;28;20199;-78
2021/01/17 21:44:24;;;;;;;3.30;1.37;;;8.00;99.90;;;;;;20701816;28;20790;-77
2021/01/17 21:54:27;;;;;;;1.87;0.80;;;7.70;99.90;;;;;;20639545;28;20207;-78
2021/01/17 22:04:31;;;;;;;2.13;0.73;;;7.80;99.90;;;;;;20620929;28;20247;-76
2021/01/17 22:14:34;;;;;;;1.07;0.97;;;7.80;99.90;;;;;;20618959;28;20683;-82
2021/01/17 22:24:39;;;;;;;0.40;0.40;;;7.70;99.90;;;;;;20620306;28;20231;-83
2021/01/17 22:34:47;;;;;;;0.50;0.50;;;7.90;99.90;;;;;;20616813;28;20262;-82
2021/01/17 22:44:50;;;;;;;1.67;1.30;;;8.00;99.90;;;;;;20618008;28;20835;-82
2021/01/17 22:54:53;;;;;;;2.00;0.93;;;8.30;99.90;;;;;;20684305;28;20281;-83
2021/01/17 23:04:56;;;;;;;0.40;0.40;;;7.70;99.90;;;;;;20697751;28;20354;-78
2021/01/17 23:15:00;;;;;;;0.73;0.73;;;8.00;99.90;;;;;;20679010;28;20203;-82
2021/01/17 23:25:07;;;;;;;1.27;1.17;;;7.70;99.90;;;;;;20677895;28;20226;-84
2021/01/17 23:35:11;;;;;;;2.03;1.57;;;7.70;99.90;;;;;;20664228;28;20206;-80
2021/01/17 23:45:15;;;;;;;1.93;1.23;;;8.00;99.90;;;;;;20694412;28;20330;-81
2021/01/17 23:55:18;;;;;;;1.43;1.07;;;8.20;99.90;;;;;;20607520;28;20751;-76
